Time;durP1;ratioP1;P1;durP2;ratioP2;P2;SDS_P1;SDS_P2;PMS_P1;PMS_P2;Temp;Humidity;BMP_temperature;BMP_pressure;BME280_temperature;BME280_humidity;BME280_pressure;Samples;Min_cycle;Max_cycle;Signal;HPM_P1;HPM_P2
2022/04/27 00:01:23;;;;;;;;;;;;;;;11.36;100.00;98078.00;5076205;28;19929;-62
2022/04/27 00:03:50;;;;;;;;;;;;;;;11.43;100.00;98089.25;5075383;28;19932;-62
2022/04/27 00:06:16;;;;;;;;;;;;;;;11.53;100.00;98081.28;5076630;28;20653;-62
2022/04/27 00:08:42;;;;;;;;;;;;;;;11.59;100.00;98082.88;5078775;28;19931;-61
2022/04/27 00:11:10;;;;;;;;;;;;;;;11.61;100.00;98086.09;5078272;28;19935;-62
2022/04/27 00:13:36;;;;;;;;;;;;;;;11.52;100.00;98087.69;5075283;28;19925;-61
2022/04/27 00:16:03;;;;;;;;;;;;;;;11.46;100.00;98091.41;5075338;28;20507;-62
2022/04/27 00:18:29;;;;;;;;;;;;;;;11.35;100.00;98087.13;5078447;28;19992;-62
2022/04/27 00:20:55;;;;;;;;;;;;;;;11.45;100.00;98089.78;5078755;28;19935;-61
2022/04/27 00:23:25;;;;;;;;;;;;;;;11.59;100.00;98090.91;5076286;28;19925;-61
2022/04/27 00:25:51;;;;;;;;;;;;;;;11.66;100.00;98090.66;5075149;28;20028;-61
2022/04/27 00:28:19;;;;;;;;;;;;;;;11.68;100.00;98092.00;5076386;28;19920;-62
2022/04/27 00:30:45;;;;;;;;;;;;;;;11.72;100.00;98085.09;5078507;28;19920;-62
2022/04/27 00:33:11;;;;;;;;;;;;;;;11.79;100.00;98087.50;5077550;28;19967;-62
2022/04/27 00:35:38;;;;;;;;;;;;;;;11.71;100.00;98086.16;5074907;28;19921;-61
2022/04/27 00:38:04;;;;;;;;;;;;;;;11.65;100.00;98091.72;5075003;28;19928;-61
2022/04/27 00:40:30;;;;;;;;;;;;;;;11.70;100.00;98089.88;5079907;28;19981;-61
2022/04/27 00:42:56;;;;;;;;;;;;;;;11.67;100.00;98087.72;5081667;28;19991;-62
2022/04/27 00:45:24;;;;;;;;;;;;;;;11.72;100.00;98087.75;5079241;28;19924;-62
2022/04/27 00:47:50;;;;;;;;;;;;;;;11.73;100.00;98083.19;5078339;28;19967;-62
2022/04/27 00:50:17;;;;;;;;;;;;;;;11.72;100.00;98089.63;5061677;28;19968;-61
2022/04/27 00:52:43;;;;;;;;;;;;;;;11.74;100.00;98096.31;5081701;28;19925;-61
2022/04/27 00:55:10;;;;;;;;;;;;;;;11.77;100.00;98092.31;5081160;28;19956;-62
2022/04/27 00:57:39;;;;;;;;;;;;;;;11.79;100.00;98093.63;5078194;28;19925;-61
2022/04/27 01:00:07;;;;;;;;;;;;;;;11.70;100.00;98099.78;5078076;28;20358;-61
2022/04/27 01:02:35;;;;;;;;;;;;;;;11.75;100.00;98099.81;5069831;28;19964;-61
2022/04/27 01:05:03;;;;;;;;;;;;;;;11.71;100.00;98101.38;5078037;28;19964;-61
2022/04/27 01:07:29;;;;;;;;;;;;;;;11.76;100.00;98104.88;5063432;28;19931;-61
2022/04/27 01:09:56;;;;;;;;;;;;;;;11.70;100.00;98105.94;5081428;28;19925;-62
2022/04/27 01:12:22;;;;;;;;;;;;;;;11.72;100.00;98103.81;5078295;28;20469;-62
2022/04/27 01:14:49;;;;;;;;;;;;;;;11.71;100.00;98102.19;5081467;28;19924;-63
2022/04/27 01:17:15;;;;;;;;;;;;;;;11.72;100.00;98098.47;5080077;28;19927;-61
2022/04/27 01:19:43;;;;;;;;;;;;;;;11.71;100.00;98106.75;5078034;28;19925;-62
2022/04/27 01:22:11;;;;;;;;;;;;;;;11.73;100.00;98108.06;5078158;28;19924;-62
2022/04/27 01:24:37;;;;;;;;;;;;;;;11.70;100.00;98108.59;5081224;28;19992;-61
2022/04/27 01:27:04;;;;;;;;;;;;;;;11.68;100.00;98108.06;5081308;28;20663;-62
2022/04/27 01:29:30;;;;;;;;;;;;;;;11.62;100.00;98105.63;5077659;28;19924;-61
2022/04/27 01:32:00;;;;;;;;;;;;;;;11.64;100.00;98106.16;5077574;28;20024;-62
2022/04/27 01:34:26;;;;;;;;;;;;;;;11.60;100.00;98103.22;5080351;28;19953;-62
2022/04/27 01:36:54;;;;;;;;;;;;;;;11.59;100.00;98106.16;5081086;28;19926;-61
2022/04/27 01:39:23;;;;;;;;;;;;;;;11.52;100.00;98103.72;5079080;28;19996;-62
2022/04/27 01:41:50;;;;;;;;;;;;;;;11.53;100.00;98107.22;5077575;28;19942;-62
2022/04/27 01:44:16;;;;;;;;;;;;;;;11.51;100.00;98110.16;5078848;28;19929;-60
2022/04/27 01:46:43;;;;;;;;;;;;;;;11.59;100.00;98103.47;5080821;28;20011;-62
2022/04/27 01:49:09;;;;;;;;;;;;;;;11.65;100.00;98105.91;5080360;28;19935;-62
2022/04/27 01:54:19;;;;;;;;;;;;;;;11.57;100.00;98105.63;5079196;28;19931;-62
2022/04/27 01:56:47;;;;;;;;;;;;;;;11.59;100.00;98111.50;5080929;28;19920;-63
2022/04/27 01:59:14;;;;;;;;;;;;;;;11.55;100.00;98116.56;5079438;28;19924;-62
2022/04/27 02:01:40;;;;;;;;;;;;;;;11.54;100.00;98114.19;5073913;28;19956;-62
2022/04/27 02:04:07;;;;;;;;;;;;;;;11.58;100.00;98113.38;5063787;28;20015;-62
2022/04/27 02:06:35;;;;;;;;;;;;;;;11.60;100.00;98113.94;5076960;28;19925;-63
2022/04/27 02:09:02;;;;;;;;;;;;;;;11.60;100.00;98115.78;5076921;28;19925;-62
2022/04/27 02:11:28;;;;;;;;;;;;;;;11.63;100.00;98118.75;5079816;28;19980;-61
2022/04/27 02:13:56;;;;;;;;;;;;;;;11.66;100.00;98122.75;5078887;28;19921;-61
2022/04/27 02:16:22;;;;;;;;;;;;;;;11.70;100.00;98127.34;5078912;28;19921;-61
2022/04/27 02:18:49;;;;;;;;;;;;;;;11.62;100.00;98130.50;5080324;28;19985;-62
2022/04/27 02:21:15;;;;;;;;;;;;;;;11.64;100.00;98125.69;5078634;28;19925;-61
2022/04/27 02:23:42;;;;;;;;;;;;;;;11.65;100.00;98135.34;5076798;28;19924;-61
2022/04/27 02:26:08;;;;;;;;;;;;;;;11.68;100.00;98128.63;5077116;28;19948;-61
2022/04/27 02:28:34;;;;;;;;;;;;;;;11.68;100.00;98126.78;5080062;28;20574;-62
2022/04/27 02:31:02;;;;;;;;;;;;;;;11.64;100.00;98125.69;5080230;28;19924;-62
2022/04/27 02:33:29;;;;;;;;;;;;;;;11.65;100.00;98127.31;5077033;28;19928;-61
2022/04/27 02:35:56;;;;;;;;;;;;;;;11.59;100.00;98130.22;5076530;28;19925;-61
2022/04/27 02:38:22;;;;;;;;;;;;;;;11.58;100.00;98134.78;5078506;28;19921;-62
2022/04/27 02:40:48;;;;;;;;;;;;;;;11.58;100.00;98134.78;5080017;28;19925;-61
2022/04/27 02:43:15;;;;;;;;;;;;;;;11.62;100.00;98137.72;5078777;27;19924;-61
2022/04/27 02:45:41;;;;;;;;;;;;;;;11.58;100.00;98140.13;5076475;28;19925;-61
2022/04/27 02:48:09;;;;;;;;;;;;;;;11.54;100.00;98141.72;5076571;28;19995;-62
2022/04/27 02:53:19;;;;;;;;;;;;;;;11.55;100.00;98145.19;5078035;28;19924;-61
2022/04/27 02:55:45;;;;;;;;;;;;;;;11.54;100.00;98151.63;5076384;28;19960;-62
2022/04/27 02:58:12;;;;;;;;;;;;;;;11.56;100.00;98150.28;5076836;28;19988;-61
2022/04/27 03:00:39;;;;;;;;;;;;;;;11.49;100.00;98157.75;5079680;28;19999;-61
2022/04/27 03:03:07;;;;;;;;;;;;;;;11.51;100.00;98147.59;5078561;28;19952;-60
2022/04/27 03:05:34;;;;;;;;;;;;;;;11.50;100.00;98155.88;5068062;28;19967;-61
2022/04/27 03:08:01;;;;;;;;;;;;;;;11.51;100.00;98158.31;5076118;28;20020;-61
2022/04/27 03:10:27;;;;;;;;;;;;;;;11.53;100.00;98158.84;5078757;28;19933;-61
2022/04/27 03:12:53;;;;;;;;;;;;;;;11.55;100.00;98156.69;5079461;28;19980;-61
2022/04/27 03:15:20;;;;;;;;;;;;;;;11.47;100.00;98164.44;5077615;28;19928;-61
2022/04/27 03:18:16;;;;;;;;;;;;;;;11.52;100.00;98172.47;5076042;28;19925;-61
2022/04/27 03:20:32;;;;;;;;;;;;;;;11.44;100.00;98176.47;5067759;28;19924;-61
2022/04/27 03:23:00;;;;;;;;;;;;;;;11.47;100.00;98170.59;5075966;28;19925;-61
2022/04/27 03:25:27;;;;;;;;;;;;;;;11.47;100.00;98173.25;5078701;28;20056;-61
2022/04/27 03:27:53;;;;;;;;;;;;;;;11.42;100.00;98173.22;5079636;27;19931;-61
2022/04/27 03:30:19;;;;;;;;;;;;;;;11.49;100.00;98168.44;5077236;28;19921;-62
2022/04/27 03:32:46;;;;;;;;;;;;;;;11.47;100.00;98170.59;5075782;28;19921;-61
2022/04/27 03:35:12;;;;;;;;;;;;;;;11.47;100.00;98181.28;5076376;28;20016;-62
2022/04/27 03:37:38;;;;;;;;;;;;;;;11.48;100.00;98182.88;5079104;28;19924;-61
2022/04/27 03:40:08;;;;;;;;;;;;;;;11.42;100.00;98183.91;5079189;28;20012;-62
2022/04/27 03:42:34;;;;;;;;;;;;;;;11.36;100.00;98182.28;5068563;28;19925;-62
2022/04/27 03:45:01;;;;;;;;;;;;;;;11.38;100.00;98178.31;5061372;28;19924;-61
2022/04/27 03:47:27;;;;;;;;;;;;;;;11.42;100.00;98188.50;5076141;28;19939;-61
2022/04/27 03:49:54;;;;;;;;;;;;;;;11.39;100.00;98187.13;5075530;28;19946;-60
2022/04/27 03:52:20;;;;;;;;;;;;;;;11.44;100.00;98189.84;5077097;28;19946;-61
2022/04/27 03:54:47;;;;;;;;;;;;;;;11.38;100.00;98193.56;5078857;28;19924;-61
2022/04/27 03:57:15;;;;;;;;;;;;;;;11.45;100.00;98193.31;5077577;28;19924;-62
2022/04/27 03:59:41;;;;;;;;;;;;;;;11.44;100.00;98203.19;5075354;28;20001;-61
2022/04/27 04:02:07;;;;;;;;;;;;;;;11.48;100.00;98198.13;5074948;28;19940;-61
2022/04/27 04:04:34;;;;;;;;;;;;;;;11.51;100.00;98203.78;5078530;28;19924;-62
2022/04/27 04:07:01;;;;;;;;;;;;;;;11.39;100.00;98212.00;5078505;28;19988;-61
2022/04/27 04:09:27;;;;;;;;;;;;;;;11.51;100.00;98216.34;5075572;28;19932;-62
2022/04/27 04:11:53;;;;;;;;;;;;;;;11.49;100.00;98207.75;5074981;28;19925;-62
2022/04/27 04:14:21;;;;;;;;;;;;;;;11.52;100.00;98216.06;5076732;28;19927;-62
2022/04/27 04:16:47;;;;;;;;;;;;;;;11.45;100.00;98218.16;5082369;28;19928;-62
2022/04/27 04:19:14;;;;;;;;;;;;;;;11.44;100.00;98213.09;5081518;28;19924;-63
2022/04/27 04:21:40;;;;;;;;;;;;;;;11.50;100.00;98220.06;5078554;28;19980;-62
2022/04/27 04:24:06;;;;;;;;;;;;;;;11.47;100.00;98229.44;5078509;28;19992;-62
2022/04/27 04:29:17;;;;;;;;;;;;;;;11.52;100.00;98240.13;5079836;28;19946;-62
2022/04/27 04:31:44;;;;;;;;;;;;;;;11.48;100.00;98236.34;5082117;27;19988;-62
2022/04/27 04:34:11;;;;;;;;;;;;;;;11.42;100.00;98245.44;5081071;28;19924;-63
2022/04/27 04:36:37;;;;;;;;;;;;;;;11.25;100.00;98245.63;5078455;28;19993;-61
2022/04/27 04:39:03;;;;;;;;;;;;;;;11.11;100.00;98251.69;5078510;28;19932;-61
2022/04/27 04:41:30;;;;;;;;;;;;;;;11.25;100.00;98252.84;5081620;28;19944;-61
2022/04/27 04:43:56;;;;;;;;;;;;;;;11.38;100.00;98252.38;5080267;28;19935;-62
2022/04/27 04:46:22;;;;;;;;;;;;;;;11.29;100.00;98254.75;5080108;28;20475;-60
2022/04/27 04:48:50;;;;;;;;;;;;;;;11.38;100.00;98255.06;5081774;28;19928;-61
2022/04/27 04:51:16;;;;;;;;;;;;;;;11.38;100.00;98255.06;5080122;28;19992;-62
2022/04/27 04:53:42;;;;;;;;;;;;;;;11.28;100.00;98253.13;5078126;28;19983;-61
2022/04/27 04:56:09;;;;;;;;;;;;;;;11.10;100.00;98261.56;5078217;28;19935;-62
2022/04/27 04:58:35;;;;;;;;;;;;;;;10.89;100.00;98269.69;5081463;28;19924;-62
2022/04/27 05:01:03;;;;;;;;;;;;;;;10.76;100.00;98265.59;5081550;27;20438;-62
2022/04/27 05:03:30;;;;;;;;;;;;;;;10.78;100.00;98271.47;5078057;28;19924;-62
2022/04/27 05:05:58;;;;;;;;;;;;;;;10.62;100.00;98275.06;5078066;28;19925;-61
2022/04/27 05:08:24;;;;;;;;;;;;;;;10.48;100.00;98281.91;5080206;28;19932;-62
2022/04/27 05:10:51;;;;;;;;;;;;;;;10.32;100.00;98288.97;5081469;27;19991;-62
2022/04/27 05:13:17;;;;;;;;;;;;;;;10.38;100.00;98295.16;5079672;28;20371;-62
2022/04/27 05:15:43;;;;;;;;;;;;;;;10.53;100.00;98295.28;5077581;28;19932;-61
2022/04/27 05:18:09;;;;;;;;;;;;;;;10.58;100.00;98295.34;5077734;28;19927;-62
2022/04/27 05:20:37;;;;;;;;;;;;;;;10.63;100.00;98284.72;5080916;28;19928;-62
2022/04/27 05:23:05;;;;;;;;;;;;;;;10.67;100.00;98288.50;5081105;28;19925;-62
2022/04/27 05:25:33;;;;;;;;;;;;;;;10.80;100.00;98298.72;5076356;28;19993;-63
2022/04/27 05:27:59;;;;;;;;;;;;;;;10.70;100.00;98287.97;5077292;28;19921;-62
2022/04/27 05:33:09;;;;;;;;;;;;;;;10.44;100.00;98296.81;5080261;28;19942;-61
2022/04/27 05:35:39;;;;;;;;;;;;;;;10.22;100.00;98304.84;5077172;28;19950;-61
2022/04/27 05:38:07;;;;;;;;;;;;;;;10.22;100.00;98312.88;5077165;28;19925;-61
2022/04/27 05:40:33;;;;;;;;;;;;;;;10.46;100.00;98303.50;5068968;28;20015;-61
2022/04/27 05:43:00;;;;;;;;;;;;;;;10.37;100.00;98306.91;5081182;28;19931;-61
2022/04/27 05:45:26;;;;;;;;;;;;;;;10.62;100.00;98313.28;5077593;28;19932;-61
2022/04/27 05:47:53;;;;;;;;;;;;;;;10.59;100.00;98319.13;5077020;28;19921;-62
2022/04/27 05:50:19;;;;;;;;;;;;;;;10.46;100.00;98318.75;5078585;28;19984;-63
2022/04/27 05:52:49;;;;;;;;;;;;;;;10.43;100.00;98324.59;5080630;28;20012;-62
2022/04/27 05:55:16;;;;;;;;;;;;;;;10.32;100.00;98330.84;5079216;28;20019;-63
2022/04/27 05:57:43;;;;;;;;;;;;;;;10.19;100.00;98337.38;5077122;28;19973;-66
2022/04/27 06:00:10;;;;;;;;;;;;;;;10.34;100.00;98332.22;5077211;28;19989;-63
2022/04/27 06:02:36;;;;;;;;;;;;;;;10.50;100.00;98335.84;5079959;28;19924;-63
2022/04/27 06:05:03;;;;;;;;;;;;;;;10.31;100.00;98340.72;5080277;28;19921;-61
2022/04/27 06:07:29;;;;;;;;;;;;;;;10.23;100.00;98338.50;5077211;28;19929;-62
2022/04/27 06:09:55;;;;;;;;;;;;;;;10.18;100.00;98338.47;5076706;28;19995;-63
2022/04/27 06:12:25;;;;;;;;;;;;;;;10.14;100.00;98332.00;5078705;28;19924;-62
2022/04/27 06:14:51;;;;;;;;;;;;;;;10.24;100.00;98348.16;5080202;28;20015;-62
2022/04/27 06:17:18;;;;;;;;;;;;;;;10.37;100.00;98346.94;5078812;27;19920;-62
2022/04/27 06:19:44;;;;;;;;;;;;;;;10.52;100.00;98347.88;5076783;28;20626;-63
2022/04/27 06:22:10;;;;;;;;;;;;;;;10.68;100.00;98347.00;5076907;28;19960;-61
2022/04/27 06:24:36;;;;;;;;;;;;;;;10.90;100.00;98351.44;5079868;28;19925;-64
2022/04/27 06:27:03;;;;;;;;;;;;;;;10.90;100.00;98346.09;5080102;28;19924;-62
2022/04/27 06:29:31;;;;;;;;;;;;;;;10.84;100.00;98354.09;5076577;28;19958;-62
2022/04/27 06:31:57;;;;;;;;;;;;;;;10.80;100.00;98361.00;5076489;28;19931;-62
2022/04/27 06:34:23;;;;;;;;;;;;;;;10.52;100.00;98361.25;5078512;28;19925;-62
2022/04/27 06:36:49;;;;;;;;;;;;;;;10.25;100.00;98365.75;5079298;28;19921;-62
2022/04/27 06:39:17;;;;;;;;;;;;;;;10.30;100.00;98365.81;5077763;28;20839;-61
2022/04/27 06:41:44;;;;;;;;;;;;;;;10.48;100.00;98365.50;5076254;28;19925;-61
2022/04/27 06:44:10;;;;;;;;;;;;;;;10.38;100.00;98365.38;5076304;28;19931;-61
2022/04/27 06:46:38;;;;;;;;;;;;;;;10.39;100.00;98366.19;5079404;27;19976;-62
2022/04/27 06:49:04;;;;;;;;;;;;;;;10.26;100.00;98372.72;5079479;28;19924;-62
2022/04/27 06:51:31;;;;;;;;;;;;;;;10.22;100.00;98372.41;5075976;28;20316;-63
2022/04/27 06:53:57;;;;;;;;;;;;;;;10.15;100.00;98377.13;5076051;28;19952;-62
2022/04/27 06:56:24;;;;;;;;;;;;;;;10.13;100.00;98384.56;5078133;28;20234;-61
2022/04/27 06:58:50;;;;;;;;;;;;;;;10.16;100.00;98399.28;5079575;27;19993;-62
2022/04/27 07:01:18;;;;;;;;;;;;;;;10.34;100.00;98388.28;5077869;28;19928;-62
2022/04/27 07:03:45;;;;;;;;;;;;;;;10.36;100.00;98396.06;5075869;28;19937;-61
2022/04/27 07:06:12;;;;;;;;;;;;;;;10.37;100.00;98401.13;5076415;28;19963;-63
2022/04/27 07:08:39;;;;;;;;;;;;;;;10.53;100.00;98400.25;5079273;28;19928;-62
2022/04/27 07:11:05;;;;;;;;;;;;;;;10.67;100.00;98395.34;5079075;28;19925;-61
2022/04/27 07:13:31;;;;;;;;;;;;;;;10.83;100.00;98394.44;5075558;28;19980;-62
2022/04/27 07:16:00;;;;;;;;;;;;;;;10.83;100.00;98395.22;5075684;28;19952;-63
2022/04/27 07:18:27;;;;;;;;;;;;;;;10.98;100.00;98396.44;5078389;28;20348;-63
2022/04/27 07:20:54;;;;;;;;;;;;;;;11.06;100.00;98395.97;5079314;28;19925;-63
2022/04/27 07:23:21;;;;;;;;;;;;;;;11.15;100.00;98403.28;5077066;27;19928;-62
2022/04/27 07:25:47;;;;;;;;;;;;;;;11.24;100.00;98401.75;5075436;28;19992;-62
2022/04/27 07:28:13;;;;;;;;;;;;;;;11.25;100.00;98399.88;5058558;28;19931;-63
2022/04/27 07:30:40;;;;;;;;;;;;;;;11.20;100.00;98403.31;5078883;28;19934;-63
2022/04/27 07:33:06;;;;;;;;;;;;;;;11.03;100.00;98412.50;5078914;28;19987;-61
2022/04/27 07:35:32;;;;;;;;;;;;;;;11.05;100.00;98407.75;5067272;28;19925;-62
2022/04/27 07:38:00;;;;;;;;;;;;;;;11.05;100.00;98408.53;5075549;28;20006;-62
2022/04/27 07:40:26;;;;;;;;;;;;;;;11.19;100.00;98414.25;5077698;28;19931;-62
2022/04/27 07:42:52;;;;;;;;;;;;;;;11.39;100.00;98420.56;5078658;28;20606;-63
2022/04/27 07:45:19;;;;;;;;;;;;;;;11.38;100.00;98423.53;5077067;28;19939;-62
2022/04/27 07:47:46;;;;;;;;;;;;;;;11.47;100.00;98424.66;5075263;28;19925;-62
2022/04/27 07:50:14;;;;;;;;;;;;;;;11.57;100.00;98426.59;5075555;28;19975;-61
2022/04/27 07:52:40;;;;;;;;;;;;;;;11.58;100.00;98429.00;5078733;28;19935;-62
2022/04/27 07:55:09;;;;;;;;;;;;;;;11.59;100.00;98438.66;5078596;28;19928;-62
2022/04/27 07:57:35;;;;;;;;;;;;;;;11.63;100.00;98442.44;5067248;28;19921;-63
2022/04/27 08:00:03;;;;;;;;;;;;;;;11.55;100.00;98436.75;5075208;28;19925;-62
2022/04/27 08:02:30;;;;;;;;;;;;;;;11.57;100.00;98437.31;5060182;28;20007;-62
2022/04/27 08:04:56;;;;;;;;;;;;;;;11.46;100.00;98444.44;5078482;28;20007;-62
2022/04/27 08:07:23;;;;;;;;;;;;;;;11.45;100.00;98440.13;5076393;27;19929;-63
2022/04/27 08:09:49;;;;;;;;;;;;;;;11.47;100.00;98443.38;5074985;28;19929;-63
2022/04/27 08:12:17;;;;;;;;;;;;;;;11.56;100.00;98446.38;5075689;28;19975;-62
2022/04/27 08:14:43;;;;;;;;;;;;;;;11.53;100.00;98453.06;5060625;28;20016;-62
2022/04/27 08:17:09;;;;;;;;;;;;;;;11.59;100.00;98452.03;5077908;28;19924;-62
2022/04/27 08:19:36;;;;;;;;;;;;;;;11.65;100.00;98456.38;5074769;28;19925;-62
2022/04/27 08:22:02;;;;;;;;;;;;;;;11.63;100.00;98450.47;5074668;28;19925;-62
2022/04/27 08:24:29;;;;;;;;;;;;;;;11.62;100.00;98451.53;5077637;28;19929;-62
2022/04/27 08:26:55;;;;;;;;;;;;;;;11.72;100.00;98453.50;5078158;28;19936;-62
2022/04/27 08:29:23;;;;;;;;;;;;;;;11.56;100.00;98455.22;5076167;28;19988;-62
2022/04/27 08:31:49;;;;;;;;;;;;;;;11.42;100.00;98450.56;5074470;28;20581;-62
2022/04/27 08:34:15;;;;;;;;;;;;;;;11.30;100.00;98459.53;5075610;28;19964;-62
2022/04/27 08:36:42;;;;;;;;;;;;;;;11.32;100.00;98465.47;5077878;28;19935;-62
2022/04/27 08:39:08;;;;;;;;;;;;;;;11.27;100.00;98462.72;5077934;28;19924;-62
2022/04/27 08:41:34;;;;;;;;;;;;;;;11.23;100.00;98474.97;5074636;28;19933;-62
2022/04/27 08:44:00;;;;;;;;;;;;;;;11.30;100.00;98458.72;5074473;28;19924;-62
2022/04/27 08:46:29;;;;;;;;;;;;;;;11.33;100.00;98468.91;5076896;28;19928;-62
2022/04/27 08:48:55;;;;;;;;;;;;;;;11.45;100.00;98466.88;5077884;28;19941;-62
2022/04/27 08:51:22;;;;;;;;;;;;;;;11.59;100.00;98472.63;5075758;28;19963;-62
2022/04/27 08:53:48;;;;;;;;;;;;;;;11.74;100.00;98467.41;5074447;28;19920;-62
2022/04/27 08:56:16;;;;;;;;;;;;;;;11.88;100.00;98472.06;5075150;28;19925;-62
2022/04/27 08:58:43;;;;;;;;;;;;;;;12.17;100.00;98471.72;5077826;28;19924;-62
2022/04/27 09:01:09;;;;;;;;;;;;;;;12.35;100.00;98481.97;5078577;28;19925;-65
2022/04/27 09:03:38;;;;;;;;;;;;;;;12.45;100.00;98476.69;5077483;28;19988;-62
2022/04/27 09:06:05;;;;;;;;;;;;;;;12.63;100.00;98478.09;5077800;28;19925;-62
2022/04/27 09:08:37;;;;;;;;;;;;;;;12.70;100.00;98474.13;5080833;28;19931;-62
2022/04/27 09:11:17;;;;;;;;;;;;;;;12.77;100.00;98481.91;5081004;28;19924;-62
2022/04/27 09:13:48;;;;;;;;;;;;;;;12.66;100.00;98486.41;5073767;28;19929;-62
2022/04/27 09:16:14;;;;;;;;;;;;;;;12.73;100.00;98484.31;5078297;28;19921;-61
2022/04/27 09:21:54;;;;;;;;;;;;;;;12.58;100.00;98488.81;5069088;28;20012;-62
2022/04/27 09:24:21;;;;;;;;;;;;;;;12.39;100.00;98491.13;5079244;28;19928;-62
2022/04/27 09:26:57;;;;;;;;;;;;;;;12.34;100.00;98496.47;5080857;28;19924;-62
2022/04/27 09:29:24;;;;;;;;;;;;;;;12.33;100.00;98498.31;5078388;28;19987;-63
2022/04/27 09:31:55;;;;;;;;;;;;;;;12.35;100.00;98498.06;5077322;28;19935;-62
2022/04/27 09:34:28;;;;;;;;;;;;;;;12.15;100.00;98492.59;5079162;28;19925;-62
2022/04/27 09:36:55;;;;;;;;;;;;;;;12.18;100.00;98502.78;5080738;28;19920;-62
2022/04/27 09:39:23;;;;;;;;;;;;;;;12.28;100.00;98495.63;5078675;28;19996;-62
2022/04/27 09:41:50;;;;;;;;;;;;;;;12.22;100.00;98498.53;5077095;28;19960;-63
2022/04/27 09:44:27;;;;;;;;;;;;;;;12.31;100.00;98500.47;5078323;28;19925;-62
2022/04/27 09:46:53;;;;;;;;;;;;;;;12.45;100.00;98495.44;5080456;28;19950;-63
2022/04/27 09:49:19;;;;;;;;;;;;;;;12.52;100.00;98501.38;5078824;28;19999;-62
2022/04/27 09:51:49;;;;;;;;;;;;;;;12.51;100.00;98496.25;5076965;28;19939;-62
2022/04/27 09:54:18;;;;;;;;;;;;;;;12.75;100.00;98500.13;5077927;28;19967;-63
2022/04/27 09:56:48;;;;;;;;;;;;;;;12.77;100.00;98501.47;5080481;28;19927;-62
2022/04/27 09:59:16;;;;;;;;;;;;;;;12.72;100.00;98500.66;5079716;28;19983;-62
2022/04/27 10:01:43;;;;;;;;;;;;;;;12.74;100.00;98496.66;5076787;28;19947;-63
2022/04/27 10:04:11;;;;;;;;;;;;;;;12.97;100.00;98504.22;5077098;28;19992;-62
2022/04/27 10:06:37;;;;;;;;;;;;;;;12.93;100.00;98505.84;5080303;28;19924;-61
2022/04/27 10:09:05;;;;;;;;;;;;;;;13.06;100.00;98514.44;5080400;28;19925;-61
2022/04/27 10:11:32;;;;;;;;;;;;;;;13.15;100.00;98504.84;5076513;28;19980;-62
2022/04/27 10:14:00;;;;;;;;;;;;;;;13.25;100.00;98508.34;5076580;28;19948;-62
2022/04/27 10:16:27;;;;;;;;;;;;;;;13.35;100.00;98502.19;5079231;28;19924;-62
2022/04/27 10:18:54;;;;;;;;;;;;;;;13.40;100.00;98505.69;5080100;28;19925;-63
2022/04/27 10:21:39;;;;;;;;;;;;;;;13.34;100.00;98508.63;5077877;28;19931;-62
2022/04/27 10:24:07;;;;;;;;;;;;;;;13.23;100.00;98505.13;5076582;28;19946;-62
2022/04/27 10:26:33;;;;;;;;;;;;;;;13.26;100.00;98499.22;5068269;28;19924;-61
2022/04/27 10:29:00;;;;;;;;;;;;;;;13.27;100.00;98510.78;5076391;28;20044;-62
2022/04/27 10:31:47;;;;;;;;;;;;;;;13.12;100.00;98508.84;5079032;28;19924;-62
2022/04/27 10:34:19;;;;;;;;;;;;;;;13.24;100.00;98501.38;5079215;27;19925;-62
2022/04/27 10:36:47;;;;;;;;;;;;;;;13.28;100.00;98501.63;5076359;28;19931;-63
2022/04/27 10:39:19;;;;;;;;;;;;;;;13.33;100.00;98501.66;5076920;28;19925;-61
2022/04/27 10:41:50;;;;;;;;;;;;;;;13.26;100.00;98504.59;5079636;28;19932;-63
2022/04/27 10:44:16;;;;;;;;;;;;;;;13.28;100.00;98498.94;5073753;28;19927;-61
2022/04/27 10:46:44;;;;;;;;;;;;;;;13.34;100.00;98497.88;5076145;28;19925;-63
2022/04/27 10:49:23;;;;;;;;;;;;;;;13.21;100.00;98496.56;5076599;28;19970;-62
2022/04/27 10:51:59;;;;;;;;;;;;;;;13.15;100.00;98494.13;5079699;28;19925;-63
2022/04/27 10:54:27;;;;;;;;;;;;;;;13.29;100.00;98501.38;5077124;28;19924;-62
2022/04/27 10:56:54;;;;;;;;;;;;;;;13.19;100.00;98505.91;5076271;28;19942;-62
2022/04/27 10:59:39;;;;;;;;;;;;;;;13.15;100.00;98507.53;5077525;28;19939;-63
2022/04/27 11:02:05;;;;;;;;;;;;;;;13.09;100.00;98511.28;5079198;27;19925;-61
2022/04/27 11:04:32;;;;;;;;;;;;;;;13.07;100.00;98505.31;5076282;28;19992;-62
2022/04/27 11:07:11;;;;;;;;;;;;;;;13.10;100.00;98507.50;5076194;28;19925;-62
2022/04/27 11:10:00;;;;;;;;;;;;;;;13.08;100.00;98506.94;5068370;28;19935;-62
2022/04/27 11:12:32;;;;;;;;;;;;;;;13.10;100.00;98507.50;5059774;28;20938;-62
2022/04/27 11:14:58;;;;;;;;;;;;;;;13.25;100.00;98512.91;5079114;28;19932;-62
2022/04/27 11:17:29;;;;;;;;;;;;;;;13.41;100.00;98503.81;5076882;28;19921;-62
2022/04/27 11:19:55;;;;;;;;;;;;;;;13.51;100.00;98506.50;5076000;28;19924;-62
2022/04/27 11:22:22;;;;;;;;;;;;;;;13.63;100.00;98504.38;5077432;28;19925;-62
2022/04/27 11:24:48;;;;;;;;;;;;;;;13.65;100.00;98506.81;5078723;28;20514;-61
2022/04/27 11:27:21;;;;;;;;;;;;;;;13.83;100.00;98498.22;5078216;28;20005;-62
2022/04/27 11:29:50;;;;;;;;;;;;;;;13.92;100.00;98494.72;5075822;28;19988;-63
2022/04/27 11:32:16;;;;;;;;;;;;;;;14.04;100.00;98483.69;5076649;28;19932;-62
2022/04/27 11:34:47;;;;;;;;;;;;;;;13.96;100.00;98490.38;5079110;28;19992;-62
2022/04/27 11:37:15;;;;;;;;;;;;;;;14.21;100.00;98492.22;5078217;28;20594;-62
2022/04/27 11:39:41;;;;;;;;;;;;;;;14.18;100.00;98497.34;5075650;28;19946;-62
2022/04/27 11:42:12;;;;;;;;;;;;;;;14.19;100.00;98488.22;5075571;28;19928;-62
2022/04/27 11:44:38;;;;;;;;;;;;;;;14.30;100.00;98495.16;5068024;28;19925;-63
2022/04/27 11:47:24;;;;;;;;;;;;;;;14.26;100.00;98491.44;5075470;28;19929;-63
2022/04/27 11:49:53;;;;;;;;;;;;;;;14.32;99.88;98490.34;5069763;28;19993;-62
2022/04/27 11:52:20;;;;;;;;;;;;;;;14.34;98.74;98493.56;5076879;28;19931;-62
2022/04/27 11:54:46;;;;;;;;;;;;;;;14.19;100.00;98496.28;5079061;28;19987;-62
2022/04/27 11:57:19;;;;;;;;;;;;;;;14.18;100.00;98500.03;5078179;28;19932;-63
2022/04/27 11:59:47;;;;;;;;;;;;;;;14.28;95.88;98500.81;5075385;28;19920;-62
2022/04/27 12:02:20;;;;;;;;;;;;;;;14.20;100.00;98497.88;5075653;28;19925;-62
2022/04/27 12:04:47;;;;;;;;;;;;;;;13.81;100.00;98501.16;5078679;28;19920;-62
2022/04/27 12:07:13;;;;;;;;;;;;;;;14.22;98.05;98507.28;5077937;28;20043;-62
2022/04/27 12:09:39;;;;;;;;;;;;;;;14.23;100.00;98503.53;5075256;28;19921;-63
2022/04/27 12:12:06;;;;;;;;;;;;;;;13.93;100.00;98504.34;5075115;28;19985;-62
2022/04/27 12:14:33;;;;;;;;;;;;;;;14.17;97.63;98498.44;5078363;28;19924;-62
2022/04/27 12:16:59;;;;;;;;;;;;;;;14.39;95.58;98502.41;5078501;28;19925;-61
2022/04/27 12:19:29;;;;;;;;;;;;;;;14.53;93.99;98500.78;5075902;28;19951;-61
2022/04/27 12:22:10;;;;;;;;;;;;;;;14.49;98.33;98502.41;5075195;28;19931;-63
2022/04/27 12:24:42;;;;;;;;;;;;;;;14.55;92.33;98505.88;5067261;28;19925;-62
2022/04/27 12:27:17;;;;;;;;;;;;;;;14.80;91.65;98511.16;5074969;28;19925;-62
2022/04/27 12:29:43;;;;;;;;;;;;;;;14.83;88.25;98507.91;5078572;28;19934;-62
2022/04/27 12:32:10;;;;;;;;;;;;;;;14.73;88.47;98507.94;5077958;28;19921;-61
2022/04/27 12:37:36;;;;;;;;;;;;;;;14.72;84.78;98503.69;5079826;28;19931;-62
2022/04/27 12:40:13;;;;;;;;;;;;;;;14.88;87.65;98502.53;5081996;28;19944;-63
2022/04/27 12:42:54;;;;;;;;;;;;;;;14.60;93.74;98497.81;5071883;28;19920;-62
2022/04/27 12:45:20;;;;;;;;;;;;;;;14.61;100.00;98507.47;5080147;28;19931;-62
2022/04/27 12:47:47;;;;;;;;;;;;;;;14.55;100.00;98492.44;5078280;28;19925;-62
2022/04/27 12:50:15;;;;;;;;;;;;;;;14.32;100.00;98501.91;5078776;28;19921;-62
2022/04/27 12:52:45;;;;;;;;;;;;;;;14.35;100.00;98492.50;5081463;28;19934;-62
2022/04/27 12:55:12;;;;;;;;;;;;;;;14.19;100.00;98502.44;5081135;28;19957;-62
2022/04/27 12:57:42;;;;;;;;;;;;;;;14.28;100.00;98508.06;5078078;28;19984;-63